createdAt,value
2018-04-29T00:01:29.783Z,14.65
2018-04-29T00:07:34.211Z,14.66
2018-04-29T00:13:38.695Z,14.43
2018-04-29T00:19:43.099Z,14.54
2018-04-29T00:25:47.546Z,14.75
2018-04-29T00:31:52.838Z,14.44
2018-04-29T00:37:57.219Z,14.48
2018-04-29T00:44:01.589Z,14.19
2018-04-29T00:50:06.782Z,14.06
2018-04-29T00:56:11.178Z,13.93
2018-04-29T01:02:15.569Z,13.69
2018-04-29T01:08:20.049Z,13.79
2018-04-29T01:14:24.508Z,13.86
2018-04-29T01:20:28.864Z,13.78
2018-04-29T01:26:33.261Z,13.63
2018-04-29T01:32:37.624Z,13.65
2018-04-29T01:38:42.070Z,13.42
2018-04-29T01:44:47.185Z,13.37
2018-04-29T01:50:51.865Z,13.50
2018-04-29T01:56:56.213Z,13.12
2018-04-29T02:03:00.556Z,13.11
2018-04-29T02:09:04.941Z,13.12
2018-04-29T02:15:09.304Z,13.27
2018-04-29T02:21:13.731Z,13.14
2018-04-29T02:27:18.858Z,12.98
2018-04-29T02:33:23.429Z,13.06
2018-04-29T02:39:27.803Z,12.89
2018-04-29T02:45:32.154Z,12.79
2018-04-29T02:51:37.307Z,12.53
2018-04-29T02:57:41.664Z,12.27
2018-04-29T03:03:46.028Z,12.10
2018-04-29T03:09:50.393Z,11.91
2018-04-29T03:15:54.796Z,11.75
2018-04-29T03:21:59.218Z,11.38
2018-04-29T03:28:04.336Z,11.19
2018-04-29T03:34:08.685Z,10.99
2018-04-29T03:40:13.818Z,10.79
2018-04-29T03:46:18.270Z,10.76
2018-04-29T03:52:22.703Z,10.73
2018-04-29T03:58:45.053Z,10.56
2018-04-29T04:04:49.399Z,10.38
2018-04-29T04:10:54.832Z,10.27
2018-04-29T04:16:59.213Z,10.43
2018-04-29T04:23:03.610Z,10.25
2018-04-29T04:29:07.943Z,10.32
2018-04-29T04:35:12.295Z,10.34
2018-04-29T04:41:17.409Z,10.26
2018-04-29T04:47:21.867Z,10.26
2018-04-29T04:53:27.004Z,10.39
2018-04-29T04:59:31.353Z,10.39
2018-04-29T05:05:35.726Z,10.56
2018-04-29T05:11:40.076Z,10.60
2018-04-29T05:17:44.446Z,10.96
2018-04-29T05:23:49.564Z,11.20
2018-04-29T05:29:53.951Z,11.71
2018-04-29T05:35:58.405Z,11.73
2018-04-29T05:42:03.927Z,12.05
2018-04-29T05:48:08.278Z,12.43
2018-04-29T05:54:12.638Z,12.45
2018-04-29T06:00:17.776Z,12.69
2018-04-29T06:06:22.201Z,12.88
2018-04-29T06:12:28.050Z,13.08
2018-04-29T06:18:33.257Z,13.52
2018-04-29T06:24:37.607Z,13.93
2018-04-29T06:30:41.973Z,14.12
2018-04-29T06:36:47.182Z,14.49
2018-04-29T06:42:51.568Z,15.03
2018-04-29T06:48:55.972Z,15.50
2018-04-29T06:55:00.350Z,15.72
2018-04-29T07:01:04.789Z,15.99
2018-04-29T07:07:09.156Z,16.67
2018-04-29T07:13:13.535Z,17.15
2018-04-29T07:19:17.883Z,17.56
2018-04-29T07:25:23.004Z,17.86
2018-04-29T07:31:27.390Z,18.08
2018-04-29T07:37:31.751Z,17.86
2018-04-29T07:43:36.213Z,18.21
2018-04-29T07:49:41.332Z,18.74
2018-04-29T07:55:45.678Z,19.54
2018-04-29T08:01:50.808Z,19.54
2018-04-29T08:07:55.195Z,19.97
2018-04-29T08:14:00.340Z,20.78
2018-04-29T08:20:05.455Z,21.02
2018-04-29T08:26:09.837Z,20.76
2018-04-29T08:32:14.199Z,21.09
2018-04-29T08:38:18.562Z,21.44
2018-04-29T08:44:23.077Z,21.69
2018-04-29T08:50:27.432Z,22.04
2018-04-29T08:56:31.908Z,22.89
2018-04-29T09:02:36.322Z,23.15
2018-04-29T09:08:40.712Z,23.45
2018-04-29T09:14:45.056Z,24.05
2018-04-29T09:20:49.596Z,23.99
2018-04-29T09:26:54.082Z,23.49
2018-04-29T09:32:58.589Z,23.57
2018-04-29T09:39:02.983Z,23.25
2018-04-29T09:45:07.338Z,23.16
2018-04-29T09:51:11.690Z,24.11
2018-04-29T09:57:16.050Z,24.03
2018-04-29T10:03:20.445Z,25.34
2018-04-29T10:09:24.897Z,25.55
2018-04-29T10:15:29.241Z,25.28
2018-04-29T10:21:33.656Z,26.43
2018-04-29T10:27:38.058Z,26.19
2018-04-29T10:33:42.433Z,26.63
2018-04-29T10:39:46.797Z,27.50
2018-04-29T10:45:51.255Z,27.84
2018-04-29T10:51:55.760Z,28.76
2018-04-29T10:58:00.142Z,29.66
2018-04-29T11:04:04.514Z,31.65
2018-04-29T11:10:08.980Z,30.98
2018-04-29T11:16:13.344Z,29.51
2018-04-29T11:22:17.716Z,27.74
2018-04-29T11:28:23.247Z,26.50
2018-04-29T11:34:27.608Z,25.27
2018-04-29T11:40:31.991Z,25.08
2018-04-29T11:46:36.334Z,25.02
2018-04-29T11:52:41.461Z,25.35
2018-04-29T11:58:45.919Z,24.99
2018-04-29T12:04:50.875Z,24.49
2018-04-29T12:10:55.514Z,23.75
2018-04-29T12:17:00.083Z,23.23
2018-04-29T12:23:04.464Z,24.53
2018-04-29T12:29:08.857Z,25.80
2018-04-29T12:35:13.261Z,29.28
2018-04-29T12:41:18.403Z,33.38
2018-04-29T12:47:23.483Z,34.69
2018-04-29T12:53:28.047Z,35.16
2018-04-29T12:59:32.435Z,36.42
2018-04-29T13:05:36.919Z,36.96
2018-04-29T13:11:41.388Z,38.11
2018-04-29T13:17:45.963Z,36.67
2018-04-29T13:23:50.571Z,37.11
2018-04-29T13:29:55.003Z,37.93
2018-04-29T13:35:59.366Z,37.58
2018-04-29T13:42:04.598Z,37.57
2018-04-29T13:48:09.190Z,37.37
2018-04-29T13:54:15.170Z,36.85
2018-04-29T14:00:19.582Z,37.36
2018-04-29T14:06:24.296Z,38.44
2018-04-29T14:12:29.438Z,39.08
2018-04-29T14:18:33.780Z,39.20
2018-04-29T14:24:38.138Z,39.00
2018-04-29T14:30:42.545Z,39.36
2018-04-29T14:36:47.011Z,38.64
2018-04-29T14:42:51.714Z,39.15
2018-04-29T14:48:56.078Z,39.30
2018-04-29T14:55:00.465Z,38.52
2018-04-29T15:01:04.824Z,38.79
2018-04-29T15:07:09.220Z,39.56
2018-04-29T15:13:13.677Z,39.71
2018-04-29T15:19:18.072Z,38.92
2018-04-29T15:25:22.445Z,38.58
2018-04-29T15:31:26.906Z,36.71
2018-04-29T15:37:31.285Z,33.61
2018-04-29T15:43:35.770Z,32.53
2018-04-29T15:49:40.188Z,32.92
2018-04-29T15:55:46.044Z,32.74
2018-04-29T16:01:50.671Z,33.26
2018-04-29T16:07:55.032Z,33.30
2018-04-29T16:13:59.402Z,34.95
2018-04-29T16:20:03.746Z,36.04
2018-04-29T16:26:08.133Z,35.76
2018-04-29T16:32:12.597Z,36.33
2018-04-29T16:38:16.979Z,34.86
2018-04-29T16:44:23.174Z,32.23
2018-04-29T16:50:28.308Z,30.81
2018-04-29T16:56:32.700Z,29.36
2018-04-29T17:02:37.225Z,27.78
2018-04-29T17:08:42.356Z,27.01
2018-04-29T17:14:46.730Z,26.24
2018-04-29T17:20:51.307Z,25.32
2018-04-29T17:26:55.689Z,24.64
2018-04-29T17:33:00.051Z,24.07
2018-04-29T17:39:04.413Z,23.50
2018-04-29T17:45:08.880Z,23.41
2018-04-29T17:51:13.242Z,23.09
2018-04-29T17:57:18.446Z,22.63
2018-04-29T18:03:22.873Z,22.34
2018-04-29T18:09:27.302Z,21.99
2018-04-29T18:15:31.682Z,21.80
2018-04-29T18:21:36.050Z,21.61
2018-04-29T18:27:40.539Z,21.02
2018-04-29T18:33:44.778Z,20.56
2018-04-29T18:39:51.131Z,20.22
2018-04-29T18:45:55.523Z,20.05
2018-04-29T18:51:59.880Z,20.12
2018-04-29T18:58:04.319Z,20.42
2018-04-29T19:04:08.675Z,20.51
2018-04-29T19:10:13.075Z,20.53
2018-04-29T19:16:18.241Z,20.38
2018-04-29T19:22:22.715Z,20.26
2018-04-29T19:28:27.069Z,20.13
2018-04-29T19:34:31.429Z,20.10
2018-04-29T19:40:35.788Z,20.10
2018-04-29T19:46:40.159Z,20.04
2018-04-29T19:52:45.284Z,19.94
2018-04-29T19:58:49.659Z,19.78
2018-04-29T20:04:54.022Z,19.62
2018-04-29T20:10:58.583Z,19.61
2018-04-29T20:17:03.206Z,19.25
2018-04-29T20:23:07.591Z,18.71
2018-04-29T20:29:12.017Z,18.56
2018-04-29T20:35:16.391Z,18.38
2018-04-29T20:41:20.822Z,18.08
2018-04-29T20:47:25.269Z,18.06
2018-04-29T20:53:29.659Z,18.15
2018-04-29T20:59:34.052Z,18.37
2018-04-29T21:05:38.478Z,17.98
2018-04-29T21:11:42.839Z,17.89
2018-04-29T21:17:47.998Z,17.89
2018-04-29T21:23:52.842Z,17.96
2018-04-29T21:29:57.199Z,18.34
2018-04-29T21:36:01.594Z,18.59
2018-04-29T21:42:05.991Z,18.95
2018-04-29T21:48:10.389Z,18.95
2018-04-29T21:54:14.807Z,19.08
2018-04-29T22:00:19.233Z,18.89
2018-04-29T22:06:23.692Z,18.89
2018-04-29T22:12:28.053Z,18.81
2018-04-29T22:18:32.543Z,18.84
2018-04-29T22:24:36.992Z,19.06
2018-04-29T22:30:41.364Z,19.35
2018-04-29T22:42:56.273Z,19.83
2018-04-29T22:49:00.648Z,20.08
2018-04-29T22:55:05.031Z,20.17
2018-04-29T23:01:09.398Z,20.10
2018-04-29T23:07:13.771Z,20.06
2018-04-29T23:13:18.242Z,20.43
2018-04-29T23:19:22.652Z,20.55
2018-04-29T23:25:27.029Z,20.70
2018-04-29T23:31:31.386Z,20.52
2018-04-29T23:37:35.857Z,20.64
2018-04-29T23:43:40.216Z,20.56
2018-04-29T23:49:44.581Z,20.27
2018-04-29T23:55:49.035Z,20.13
